sensor_id;sensor_type;location;lat;lon;timestamp;pressure;altitude;pressure_sealevel;temperature;humidity
23164;BME280;31429;42.674;23.350;2023-01-27T00:00:18;93919.03;;;0.60;100.00
23164;BME280;31429;42.674;23.350;2023-01-27T00:01:19;93952.22;;;0.83;100.00
23164;BME280;31429;42.674;23.350;2023-01-27T00:02:24;93909.72;;;0.65;100.00
23164;BME280;31429;42.674;23.350;2023-01-27T00:06:56;93922.84;;;0.85;100.00
23164;BME280;31429;42.674;23.350;2023-01-27T00:08:00;93941.97;;;0.96;100.00
23164;BME280;31429;42.674;23.350;2023-01-27T00:09:02;93935.38;;;0.88;100.00
23164;BME280;31429;42.674;23.350;2023-01-27T00:10:04;93932.03;;;0.86;100.00
23164;BME280;31429;42.674;23.350;2023-01-27T00:12:20;93913.72;;;0.78;100.00
23164;BME280;31429;42.674;23.350;2023-01-27T00:19:32;93947.75;;;1.01;100.00
23164;BME280;31429;42.674;23.350;2023-01-27T00:20:33;93899.59;;;0.69;100.00
23164;BME280;31429;42.674;23.350;2023-01-27T00:22:00;93924.53;;;0.83;100.00
23164;BME280;31429;42.674;23.350;2023-01-27T00:23:21;93888.81;;;0.61;100.00
23164;BME280;31429;42.674;23.350;2023-01-27T00:39:54;93904.72;;;0.62;100.00
23164;BME280;31429;42.674;23.350;2023-01-27T00:40:55;93911.28;;;0.72;100.00
23164;BME280;31429;42.674;23.350;2023-01-27T00:44:38;93909.31;;;0.92;100.00
23164;BME280;31429;42.674;23.350;2023-01-27T00:51:48;93910.09;;;0.95;100.00
23164;BME280;31429;42.674;23.350;2023-01-27T00:56:21;93936.16;;;0.91;100.00
23164;BME280;31429;42.674;23.350;2023-01-27T00:57:22;93902.91;;;0.73;100.00
23164;BME280;31429;42.674;23.350;2023-01-27T01:05:24;93926.81;;;0.99;100.00
23164;BME280;31429;42.674;23.350;2023-01-27T01:18:09;93880.09;;;0.83;100.00
23164;BME280;31429;42.674;23.350;2023-01-27T01:20:20;93897.19;;;0.62;100.00
23164;BME280;31429;42.674;23.350;2023-01-27T01:21:21;93893.16;;;0.48;100.00
23164;BME280;31429;42.674;23.350;2023-01-27T01:23:32;93909.91;;;0.49;100.00
23164;BME280;31429;42.674;23.350;2023-01-27T01:24:33;93874.97;;;0.31;100.00
23164;BME280;31429;42.674;23.350;2023-01-27T01:25:34;93917.31;;;0.60;100.00
23164;BME280;31429;42.674;23.350;2023-01-27T01:26:38;93898.00;;;0.64;100.00
23164;BME280;31429;42.674;23.350;2023-01-27T01:27:43;93909.41;;;0.86;100.00
23164;BME280;31429;42.674;23.350;2023-01-27T01:28:45;93891.91;;;0.78;100.00
23164;BME280;31429;42.674;23.350;2023-01-27T01:29:46;93898.53;;;0.84;100.00
23164;BME280;31429;42.674;23.350;2023-01-27T01:30:47;93872.09;;;0.58;100.00
23164;BME280;31429;42.674;23.350;2023-01-27T01:31:49;93889.81;;;0.49;100.00
23164;BME280;31429;42.674;23.350;2023-01-27T01:32:51;93904.56;;;0.72;100.00
23164;BME280;31429;42.674;23.350;2023-01-27T01:33:53;93918.50;;;0.94;100.00
23164;BME280;31429;42.674;23.350;2023-01-27T01:34:54;93921.88;;;0.92;100.00
23164;BME280;31429;42.674;23.350;2023-01-27T01:35:55;93913.03;;;0.68;100.00
23164;BME280;31429;42.674;23.350;2023-01-27T01:36:56;93904.81;;;0.54;100.00
23164;BME280;31429;42.674;23.350;2023-01-27T01:37:57;93924.97;;;0.52;100.00
23164;BME280;31429;42.674;23.350;2023-01-27T01:41:22;93907.53;;;0.42;100.00
23164;BME280;31429;42.674;23.350;2023-01-27T01:42:23;93931.47;;;0.67;100.00
23164;BME280;31429;42.674;23.350;2023-01-27T01:43:24;93922.94;;;0.79;100.00
23164;BME280;31429;42.674;23.350;2023-01-27T01:44:29;93931.91;;;0.96;100.00
23164;BME280;31429;42.674;23.350;2023-01-27T01:51:26;93887.59;;;0.88;100.00
23164;BME280;31429;42.674;23.350;2023-01-27T01:58:19;93864.38;;;0.71;100.00
23164;BME280;31429;42.674;23.350;2023-01-27T01:59:23;93880.19;;;0.79;100.00
23164;BME280;31429;42.674;23.350;2023-01-27T02:00:27;93882.03;;;0.68;100.00
23164;BME280;31429;42.674;23.350;2023-01-27T02:01:32;93868.09;;;0.45;100.00
23164;BME280;31429;42.674;23.350;2023-01-27T02:02:33;93872.38;;;0.37;100.00
23164;BME280;31429;42.674;23.350;2023-01-27T02:03:36;93877.34;;;0.42;100.00
23164;BME280;31429;42.674;23.350;2023-01-27T02:04:42;93859.88;;;0.33;100.00
23164;BME280;31429;42.674;23.350;2023-01-27T02:05:44;93900.53;;;0.62;100.00
23164;BME280;31429;42.674;23.350;2023-01-27T02:06:51;93899.47;;;0.77;100.00
23164;BME280;31429;42.674;23.350;2023-01-27T02:07:56;93904.38;;;0.87;100.00
23164;BME280;31429;42.674;23.350;2023-01-27T02:08:59;93890.81;;;0.96;100.00
23164;BME280;31429;42.674;23.350;2023-01-27T02:10:00;93889.06;;;1.01;100.00
23164;BME280;31429;42.674;23.350;2023-01-27T02:11:02;93884.88;;;1.00;100.00
23164;BME280;31429;42.674;23.350;2023-01-27T02:12:03;93881.59;;;0.96;100.00
23164;BME280;31429;42.674;23.350;2023-01-27T02:13:04;93823.25;;;0.73;100.00
23164;BME280;31429;42.674;23.350;2023-01-27T02:14:05;93860.59;;;0.97;100.00
23164;BME280;31429;42.674;23.350;2023-01-27T02:15:08;93829.88;;;0.77;100.00
23164;BME280;31429;42.674;23.350;2023-01-27T02:16:12;93829.25;;;0.63;100.00
23164;BME280;31429;42.674;23.350;2023-01-27T02:17:14;93865.91;;;0.79;100.00
23164;BME280;31429;42.674;23.350;2023-01-27T02:18:15;93853.53;;;0.67;100.00
23164;BME280;31429;42.674;23.350;2023-01-27T02:19:21;93834.25;;;0.66;100.00
23164;BME280;31429;42.674;23.350;2023-01-27T02:20:28;93825.94;;;0.61;100.00
23164;BME280;31429;42.674;23.350;2023-01-27T02:21:34;93832.47;;;0.71;100.00
23164;BME280;31429;42.674;23.350;2023-01-27T02:22:44;93845.00;;;0.76;100.00
23164;BME280;31429;42.674;23.350;2023-01-27T02:23:58;93862.34;;;0.92;100.00
23164;BME280;31429;42.674;23.350;2023-01-27T02:27:21;93836.25;;;0.98;100.00
23164;BME280;31429;42.674;23.350;2023-01-27T02:28:25;93808.25;;;0.66;100.00
23164;BME280;31429;42.674;23.350;2023-01-27T02:29:26;93819.66;;;0.88;100.00
23164;BME280;31429;42.674;23.350;2023-01-27T02:30:28;93840.59;;;0.90;100.00
23164;BME280;31429;42.674;23.350;2023-01-27T02:31:29;93849.09;;;0.81;100.00
23164;BME280;31429;42.674;23.350;2023-01-27T02:32:30;93833.31;;;0.72;100.00
23164;BME280;31429;42.674;23.350;2023-01-27T02:33:31;93865.56;;;1.02;100.00
23164;BME280;31429;42.674;23.350;2023-01-27T02:34:34;93864.59;;;1.10;100.00
23164;BME280;31429;42.674;23.350;2023-01-27T02:35:43;93808.78;;;0.87;100.00
23164;BME280;31429;42.674;23.350;2023-01-27T02:36:48;93856.28;;;1.04;100.00
23164;BME280;31429;42.674;23.350;2023-01-27T02:37:50;93861.38;;;1.01;100.00
23164;BME280;31429;42.674;23.350;2023-01-27T02:38:53;93807.47;;;0.64;100.00
23164;BME280;31429;42.674;23.350;2023-01-27T02:39:59;93806.66;;;0.62;100.00
23164;BME280;31429;42.674;23.350;2023-01-27T02:41:10;93823.22;;;0.75;100.00
23164;BME280;31429;42.674;23.350;2023-01-27T02:42:17;93807.31;;;0.73;100.00
23164;BME280;31429;42.674;23.350;2023-01-27T02:43:22;93862.91;;;1.09;100.00
23164;BME280;31429;42.674;23.350;2023-01-27T02:44:23;93859.38;;;1.20;100.00
23164;BME280;31429;42.674;23.350;2023-01-27T02:45:24;93808.63;;;0.96;100.00
23164;BME280;31429;42.674;23.350;2023-01-27T02:47:35;93874.50;;;1.18;100.00
23164;BME280;31429;42.674;23.350;2023-01-27T02:48:36;93872.94;;;1.11;100.00
23164;BME280;31429;42.674;23.350;2023-01-27T02:49:36;93866.38;;;1.02;100.00
23164;BME280;31429;42.674;23.350;2023-01-27T02:52:58;93882.91;;;1.19;100.00
23164;BME280;31429;42.674;23.350;2023-01-27T02:54:00;93872.97;;;1.09;100.00
23164;BME280;31429;42.674;23.350;2023-01-27T02:55:04;93868.75;;;1.11;100.00
23164;BME280;31429;42.674;23.350;2023-01-27T02:56:07;93849.50;;;1.09;100.00
23164;BME280;31429;42.674;23.350;2023-01-27T02:57:08;93836.22;;;0.99;100.00
23164;BME280;31429;42.674;23.350;2023-01-27T02:58:09;93831.97;;;1.04;100.00
23164;BME280;31429;42.674;23.350;2023-01-27T02:59:12;93878.69;;;1.19;100.00
23164;BME280;31429;42.674;23.350;2023-01-27T03:00:13;93877.28;;;1.03;100.00
23164;BME280;31429;42.674;23.350;2023-01-27T03:01:14;93876.59;;;0.93;100.00
23164;BME280;31429;42.674;23.350;2023-01-27T03:02:15;93875.72;;;0.96;100.00
23164;BME280;31429;42.674;23.350;2023-01-27T03:03:22;93874.63;;;1.12;100.00
23164;BME280;31429;42.674;23.350;2023-01-27T03:04:22;93868.78;;;1.10;100.00
23164;BME280;31429;42.674;23.350;2023-01-27T03:05:23;93868.69;;;1.16;100.00
23164;BME280;31429;42.674;23.350;2023-01-27T03:06:24;93867.69;;;1.25;100.00
23164;BME280;31429;42.674;23.350;2023-01-27T03:07:25;93835.38;;;1.02;100.00
23164;BME280;31429;42.674;23.350;2023-01-27T03:08:26;93837.00;;;1.04;100.00
23164;BME280;31429;42.674;23.350;2023-01-27T03:14:08;93838.53;;;1.13;100.00
23164;BME280;31429;42.674;23.350;2023-01-27T03:15:12;93805.38;;;0.88;100.00
23164;BME280;31429;42.674;23.350;2023-01-27T03:16:36;93835.41;;;0.97;100.00
23164;BME280;31429;42.674;23.350;2023-01-27T03:18:04;93801.41;;;0.75;100.00
23164;BME280;31429;42.674;23.350;2023-01-27T03:20:27;93815.47;;;0.87;100.00
23164;BME280;31429;42.674;23.350;2023-01-27T03:21:28;93821.25;;;0.92;100.00
23164;BME280;31429;42.674;23.350;2023-01-27T03:22:29;93839.31;;;1.15;100.00
23164;BME280;31429;42.674;23.350;2023-01-27T03:23:33;93791.16;;;0.87;100.00
23164;BME280;31429;42.674;23.350;2023-01-27T03:24:34;93819.38;;;1.04;100.00
23164;BME280;31429;42.674;23.350;2023-01-27T03:25:42;93789.53;;;0.83;100.00
23164;BME280;31429;42.674;23.350;2023-01-27T03:27:56;93835.97;;;1.14;100.00
23164;BME280;31429;42.674;23.350;2023-01-27T03:28:57;93817.47;;;1.17;100.00
23164;BME280;31429;42.674;23.350;2023-01-27T03:31:28;93804.09;;;1.15;100.00
23164;BME280;31429;42.674;23.350;2023-01-27T03:35:04;93767.00;;;0.79;100.00
23164;BME280;31429;42.674;23.350;2023-01-27T03:36:06;93815.44;;;0.90;100.00
23164;BME280;31429;42.674;23.350;2023-01-27T03:37:26;93822.00;;;0.98;100.00
23164;BME280;31429;42.674;23.350;2023-01-27T03:38:45;93774.50;;;0.80;100.00
23164;BME280;31429;42.674;23.350;2023-01-27T03:40:08;93756.09;;;0.78;100.00
23164;BME280;31429;42.674;23.350;2023-01-27T03:41:28;93760.38;;;0.72;100.00
23164;BME280;31429;42.674;23.350;2023-01-27T03:42:47;93806.94;;;0.95;100.00
23164;BME280;31429;42.674;23.350;2023-01-27T03:44:06;93802.94;;;0.84;100.00
23164;BME280;31429;42.674;23.350;2023-01-27T03:45:25;93800.53;;;0.79;100.00
23164;BME280;31429;42.674;23.350;2023-01-27T03:48:01;93766.28;;;0.69;100.00
23164;BME280;31429;42.674;23.350;2023-01-27T03:49:02;93756.94;;;0.79;100.00
23164;BME280;31429;42.674;23.350;2023-01-27T03:50:03;93793.34;;;1.07;100.00
23164;BME280;31429;42.674;23.350;2023-01-27T03:51:10;93751.78;;;0.85;100.00
23164;BME280;31429;42.674;23.350;2023-01-27T03:52:11;93755.84;;;0.92;100.00
23164;BME280;31429;42.674;23.350;2023-01-27T03:55:34;93801.47;;;1.21;100.00
23164;BME280;31429;42.674;23.350;2023-01-27T03:56:35;93799.91;;;1.15;100.00
23164;BME280;31429;42.674;23.350;2023-01-27T03:57:36;93799.09;;;1.13;100.00
23164;BME280;31429;42.674;23.350;2023-01-27T03:58:37;93792.56;;;1.03;100.00
23164;BME280;31429;42.674;23.350;2023-01-27T03:59:38;93796.13;;;0.90;100.00
23164;BME280;31429;42.674;23.350;2023-01-27T04:00:38;93796.09;;;0.93;100.00
23164;BME280;31429;42.674;23.350;2023-01-27T04:01:39;93771.13;;;0.81;100.00
23164;BME280;31429;42.674;23.350;2023-01-27T04:02:43;93763.78;;;0.69;100.00
23164;BME280;31429;42.674;23.350;2023-01-27T04:04:09;93816.38;;;0.84;100.00
23164;BME280;31429;42.674;23.350;2023-01-27T04:05:29;93825.31;;;1.00;100.00
23164;BME280;31429;42.674;23.350;2023-01-27T04:07:59;93794.97;;;0.59;100.00
23164;BME280;31429;42.674;23.350;2023-01-27T04:09:01;93798.38;;;0.56;100.00
23164;BME280;31429;42.674;23.350;2023-01-27T04:10:03;93803.22;;;0.67;100.00
23164;BME280;31429;42.674;23.350;2023-01-27T04:11:05;93847.13;;;1.00;100.00
23164;BME280;31429;42.674;23.350;2023-01-27T04:12:24;93848.69;;;1.05;100.00
23164;BME280;31429;42.674;23.350;2023-01-27T04:13:25;93857.19;;;1.00;100.00
23164;BME280;31429;42.674;23.350;2023-01-27T04:14:27;93862.13;;;1.07;100.00
23164;BME280;31429;42.674;23.350;2023-01-27T04:15:29;93869.53;;;1.15;100.00
23164;BME280;31429;42.674;23.350;2023-01-27T04:16:30;93875.22;;;1.26;100.00
23164;BME280;31429;42.674;23.350;2023-01-27T04:17:30;93870.91;;;1.33;100.00
23164;BME280;31429;42.674;23.350;2023-01-27T04:18:38;93877.69;;;1.29;100.00
23164;BME280;31429;42.674;23.350;2023-01-27T04:19:40;93869.75;;;1.01;100.00
23164;BME280;31429;42.674;23.350;2023-01-27T04:20:41;93878.09;;;1.03;100.00
23164;BME280;31429;42.674;23.350;2023-01-27T04:21:41;93873.81;;;1.10;100.00
23164;BME280;31429;42.674;23.350;2023-01-27T04:22:42;93865.38;;;1.12;100.00
23164;BME280;31429;42.674;23.350;2023-01-27T04:23:43;93870.47;;;1.09;100.00
23164;BME280;31429;42.674;23.350;2023-01-27T04:24:43;93863.06;;;1.00;100.00
23164;BME280;31429;42.674;23.350;2023-01-27T04:25:44;93865.56;;;1.02;100.00
23164;BME280;31429;42.674;23.350;2023-01-27T04:26:47;93859.59;;;1.07;100.00
23164;BME280;31429;42.674;23.350;2023-01-27T04:28:58;93873.81;;;1.08;100.00
23164;BME280;31429;42.674;23.350;2023-01-27T04:29:59;93887.25;;;1.09;100.00
23164;BME280;31429;42.674;23.350;2023-01-27T04:31:00;93888.91;;;1.10;100.00
23164;BME280;31429;42.674;23.350;2023-01-27T04:32:01;93888.06;;;1.09;100.00
23164;BME280;31429;42.674;23.350;2023-01-27T04:33:03;93895.63;;;1.08;100.00
23164;BME280;31429;42.674;23.350;2023-01-27T04:34:04;93892.13;;;1.16;100.00
23164;BME280;31429;42.674;23.350;2023-01-27T04:35:06;93890.59;;;1.08;100.00
23164;BME280;31429;42.674;23.350;2023-01-27T04:36:07;93899.81;;;1.09;100.00
23164;BME280;31429;42.674;23.350;2023-01-27T04:37:09;93884.06;;;0.98;100.00
23164;BME280;31429;42.674;23.350;2023-01-27T04:38:09;93886.50;;;1.04;100.00
23164;BME280;31429;42.674;23.350;2023-01-27T04:43:51;93872.38;;;0.95;100.00
23164;BME280;31429;42.674;23.350;2023-01-27T04:44:52;93873.13;;;1.02;100.00
23164;BME280;31429;42.674;23.350;2023-01-27T04:45:55;93889.69;;;1.13;100.00
23164;BME280;31429;42.674;23.350;2023-01-27T04:46:56;93843.13;;;0.88;100.00
23164;BME280;31429;42.674;23.350;2023-01-27T04:49:09;93864.78;;;0.97;100.00
23164;BME280;31429;42.674;23.350;2023-01-27T04:50:15;93831.69;;;0.71;100.00
23164;BME280;31429;42.674;23.350;2023-01-27T04:51:16;93887.31;;;1.04;100.00
23164;BME280;31429;42.674;23.350;2023-01-27T04:52:19;93891.47;;;1.05;100.00
23164;BME280;31429;42.674;23.350;2023-01-27T04:53:20;93881.59;;;0.96;100.00
23164;BME280;31429;42.674;23.350;2023-01-27T04:54:21;93881.63;;;0.93;100.00
23164;BME280;31429;42.674;23.350;2023-01-27T04:55:21;93870.03;;;0.85;100.00
23164;BME280;31429;42.674;23.350;2023-01-27T04:56:24;93872.72;;;0.73;100.00
23164;BME280;31429;42.674;23.350;2023-01-27T04:57:28;93853.59;;;0.61;100.00
23164;BME280;31429;42.674;23.350;2023-01-27T04:58:29;93900.09;;;0.92;100.00
23164;BME280;31429;42.674;23.350;2023-01-27T04:59:33;93874.97;;;0.89;100.00
23164;BME280;31429;42.674;23.350;2023-01-27T05:00:34;93893.38;;;0.91;100.00
23164;BME280;31429;42.674;23.350;2023-01-27T05:01:41;93884.28;;;0.83;100.00
23164;BME280;31429;42.674;23.350;2023-01-27T05:02:43;93877.47;;;0.91;100.00
23164;BME280;31429;42.674;23.350;2023-01-27T05:03:44;93879.81;;;1.00;100.00
23164;BME280;31429;42.674;23.350;2023-01-27T05:04:45;93867.28;;;0.97;100.00
23164;BME280;31429;42.674;23.350;2023-01-27T05:05:55;93892.03;;;1.23;100.00
23164;BME280;31429;42.674;23.350;2023-01-27T05:06:59;93881.22;;;1.17;100.00
23164;BME280;31429;42.674;23.350;2023-01-27T05:08:02;93900.28;;;1.31;100.00
23164;BME280;31429;42.674;23.350;2023-01-27T05:09:02;93903.03;;;1.19;100.00
23164;BME280;31429;42.674;23.350;2023-01-27T05:10:03;93899.91;;;1.03;100.00
23164;BME280;31429;42.674;23.350;2023-01-27T05:11:04;93896.69;;;0.95;100.00
23164;BME280;31429;42.674;23.350;2023-01-27T05:12:05;93906.88;;;0.87;100.00
23164;BME280;31429;42.674;23.350;2023-01-27T05:13:06;93900.25;;;0.80;100.00
23164;BME280;31429;42.674;23.350;2023-01-27T05:14:07;93898.66;;;0.76;100.00
23164;BME280;31429;42.674;23.350;2023-01-27T05:15:08;93888.50;;;0.82;100.00
23164;BME280;31429;42.674;23.350;2023-01-27T05:16:11;93881.78;;;0.83;100.00
23164;BME280;31429;42.674;23.350;2023-01-27T05:17:12;93884.16;;;0.92;100.00
23164;BME280;31429;42.674;23.350;2023-01-27T05:18:13;93883.09;;;1.06;100.00
23164;BME280;31429;42.674;23.350;2023-01-27T05:19:14;93886.34;;;1.13;100.00
23164;BME280;31429;42.674;23.350;2023-01-27T05:20:15;93890.44;;;1.19;100.00
23164;BME280;31429;42.674;23.350;2023-01-27T05:21:19;93897.13;;;1.20;100.00
23164;BME280;31429;42.674;23.350;2023-01-27T05:22:20;93886.19;;;1.22;100.00
23164;BME280;31429;42.674;23.350;2023-01-27T05:23:21;93886.16;;;1.24;100.00
23164;BME280;31429;42.674;23.350;2023-01-27T05:24:41;93840.59;;;0.88;100.00
23164;BME280;31429;42.674;23.350;2023-01-27T05:26:54;93869.56;;;1.13;100.00
23164;BME280;31429;42.674;23.350;2023-01-27T05:27:57;93853.13;;;0.91;100.00
23164;BME280;31429;42.674;23.350;2023-01-27T05:28:58;93849.81;;;0.89;100.00
23164;BME280;31429;42.674;23.350;2023-01-27T05:30:00;93865.47;;;1.06;100.00
23164;BME280;31429;42.674;23.350;2023-01-27T05:31:02;93854.00;;;0.90;100.00
23164;BME280;31429;42.674;23.350;2023-01-27T05:32:04;93849.91;;;0.85;100.00
23164;BME280;31429;42.674;23.350;2023-01-27T05:33:06;93845.72;;;0.84;100.00
23164;BME280;31429;42.674;23.350;2023-01-27T05:34:08;93814.91;;;0.70;100.00
23164;BME280;31429;42.674;23.350;2023-01-27T05:35:09;93861.19;;;1.11;100.00
23164;BME280;31429;42.674;23.350;2023-01-27T05:36:11;93872.22;;;1.04;100.00
23164;BME280;31429;42.674;23.350;2023-01-27T05:37:13;93864.63;;;1.06;100.00
23164;BME280;31429;42.674;23.350;2023-01-27T05:38:14;93874.78;;;1.01;100.00
23164;BME280;31429;42.674;23.350;2023-01-27T05:39:15;93878.97;;;1.01;100.00
23164;BME280;31429;42.674;23.350;2023-01-27T05:40:16;93869.06;;;0.92;100.00
23164;BME280;31429;42.674;23.350;2023-01-27T05:41:17;93863.94;;;0.98;100.00
23164;BME280;31429;42.674;23.350;2023-01-27T05:42:18;93858.19;;;0.90;100.00
23164;BME280;31429;42.674;23.350;2023-01-27T05:43:19;93858.22;;;0.88;100.00
23164;BME280;31429;42.674;23.350;2023-01-27T05:44:19;93848.84;;;0.98;100.00
23164;BME280;31429;42.674;23.350;2023-01-27T05:45:20;93852.16;;;1.01;100.00
23164;BME280;31429;42.674;23.350;2023-01-27T05:46:22;93861.50;;;0.93;100.00
23164;BME280;31429;42.674;23.350;2023-01-27T05:47:23;93848.00;;;0.97;100.00
23164;BME280;31429;42.674;23.350;2023-01-27T05:48:24;93856.22;;;1.08;100.00
23164;BME280;31429;42.674;23.350;2023-01-27T05:49:25;93857.31;;;0.92;100.00
23164;BME280;31429;42.674;23.350;2023-01-27T05:50:25;93854.75;;;0.94;100.00
23164;BME280;31429;42.674;23.350;2023-01-27T05:51:29;93865.44;;;1.09;100.00
23164;BME280;31429;42.674;23.350;2023-01-27T05:52:31;93859.50;;;1.12;100.00
23164;BME280;31429;42.674;23.350;2023-01-27T05:53:32;93852.88;;;1.06;100.00
23164;BME280;31429;42.674;23.350;2023-01-27T05:54:33;93864.00;;;1.44;100.00
23164;BME280;31429;42.674;23.350;2023-01-27T05:55:34;93818.16;;;1.25;100.00
23164;BME280;31429;42.674;23.350;2023-01-27T05:56:35;93852.47;;;1.31;100.00
23164;BME280;31429;42.674;23.350;2023-01-27T05:57:36;93869.34;;;1.27;100.00
23164;BME280;31429;42.674;23.350;2023-01-27T05:58:37;93844.66;;;0.97;100.00
23164;BME280;31429;42.674;23.350;2023-01-27T05:59:39;93867.94;;;1.08;100.00
23164;BME280;31429;42.674;23.350;2023-01-27T06:01:50;93868.00;;;1.06;100.00
23164;BME280;31429;42.674;23.350;2023-01-27T06:02:50;93858.81;;;1.02;100.00
23164;BME280;31429;42.674;23.350;2023-01-27T06:03:52;93875.16;;;1.29;100.00
23164;BME280;31429;42.674;23.350;2023-01-27T06:04:53;93870.06;;;1.32;100.00
23164;BME280;31429;42.674;23.350;2023-01-27T06:05:55;93879.00;;;1.50;100.00
23164;BME280;31429;42.674;23.350;2023-01-27T06:06:56;93841.00;;;1.16;100.00
23164;BME280;31429;42.674;23.350;2023-01-27T06:07:59;93841.06;;;1.11;100.00
23164;BME280;31429;42.674;23.350;2023-01-27T06:09:01;93825.31;;;1.00;100.00
23164;BME280;31429;42.674;23.350;2023-01-27T06:10:02;93818.69;;;0.96;100.00
23164;BME280;31429;42.674;23.350;2023-01-27T06:11:05;93870.28;;;1.22;100.00
23164;BME280;31429;42.674;23.350;2023-01-27T06:12:07;93834.47;;;1.04;100.00
23164;BME280;31429;42.674;23.350;2023-01-27T06:13:10;93860.78;;;1.36;100.00
23164;BME280;31429;42.674;23.350;2023-01-27T06:14:14;93859.22;;;1.29;100.00
23164;BME280;31429;42.674;23.350;2023-01-27T06:15:15;93875.81;;;1.40;100.00
23164;BME280;31429;42.674;23.350;2023-01-27T06:17:26;93822.19;;;0.88;100.00
23164;BME280;31429;42.674;23.350;2023-01-27T06:18:31;93833.22;;;0.79;100.00
23164;BME280;31429;42.674;23.350;2023-01-27T06:19:32;93859.75;;;0.98;100.00
23164;BME280;31429;42.674;23.350;2023-01-27T06:20:33;93827.34;;;0.79;100.00
23164;BME280;31429;42.674;23.350;2023-01-27T06:21:34;93849.81;;;0.91;100.00
23164;BME280;31429;42.674;23.350;2023-01-27T06:22:35;93842.50;;;0.76;100.00
23164;BME280;31429;42.674;23.350;2023-01-27T06:23:38;93857.44;;;0.85;100.00
23164;BME280;31429;42.674;23.350;2023-01-27T06:24:39;93884.69;;;1.12;100.00
23164;BME280;31429;42.674;23.350;2023-01-27T06:25:44;93880.47;;;1.12;100.00
23164;BME280;31429;42.674;23.350;2023-01-27T06:26:45;93871.34;;;1.05;100.00
23164;BME280;31429;42.674;23.350;2023-01-27T06:27:46;93844.88;;;0.83;100.00
23164;BME280;31429;42.674;23.350;2023-01-27T06:28:48;93876.22;;;1.16;100.00
23164;BME280;31429;42.674;23.350;2023-01-27T06:29:51;93853.91;;;0.95;100.00
23164;BME280;31429;42.674;23.350;2023-01-27T06:32:02;93873.91;;;1.02;100.00
23164;BME280;31429;42.674;23.350;2023-01-27T06:33:08;93868.47;;;0.76;100.00
23164;BME280;31429;42.674;23.350;2023-01-27T06:34:09;93891.78;;;0.87;100.00
23164;BME280;31429;42.674;23.350;2023-01-27T06:35:10;93832.69;;;0.59;100.00
23164;BME280;31429;42.674;23.350;2023-01-27T06:36:13;93866.84;;;0.74;100.00
23164;BME280;31429;42.674;23.350;2023-01-27T06:37:14;93841.13;;;0.55;100.00
23164;BME280;31429;42.674;23.350;2023-01-27T06:38:17;93872.38;;;0.94;100.00
23164;BME280;31429;42.674;23.350;2023-01-27T06:39:20;93844.13;;;0.78;100.00
23164;BME280;31429;42.674;23.350;2023-01-27T06:40:21;93855.72;;;0.87;100.00
23164;BME280;31429;42.674;23.350;2023-01-27T06:41:24;93882.34;;;1.00;100.00
23164;BME280;31429;42.674;23.350;2023-01-27T06:42:25;93852.50;;;0.79;100.00
23164;BME280;31429;42.674;23.350;2023-01-27T06:43:26;93834.91;;;0.77;100.00
23164;BME280;31429;42.674;23.350;2023-01-27T06:44:27;93847.44;;;0.80;100.00
23164;BME280;31429;42.674;23.350;2023-01-27T06:45:28;93876.69;;;0.86;100.00
23164;BME280;31429;42.674;23.350;2023-01-27T06:46:31;93855.09;;;0.73;100.00
23164;BME280;31429;42.674;23.350;2023-01-27T06:47:32;93850.09;;;0.71;100.00
23164;BME280;31429;42.674;23.350;2023-01-27T06:48:35;93893.34;;;0.94;100.00
23164;BME280;31429;42.674;23.350;2023-01-27T06:49:38;93859.31;;;0.72;100.00
23164;BME280;31429;42.674;23.350;2023-01-27T06:50:39;93871.56;;;0.92;100.00
23164;BME280;31429;42.674;23.350;2023-01-27T06:51:40;93895.72;;;1.05;100.00
23164;BME280;31429;42.674;23.350;2023-01-27T06:52:41;93866.75;;;0.78;100.00
23164;BME280;31429;42.674;23.350;2023-01-27T06:53:42;93880.88;;;0.87;100.00
23164;BME280;31429;42.674;23.350;2023-01-27T06:54:47;93897.34;;;1.06;100.00
23164;BME280;31429;42.674;23.350;2023-01-27T06:55:49;93884.16;;;0.93;100.00
23164;BME280;31429;42.674;23.350;2023-01-27T06:56:54;93910.69;;;1.11;100.00
23164;BME280;31429;42.674;23.350;2023-01-27T06:59:07;93853.38;;;0.76;100.00
23164;BME280;31429;42.674;23.350;2023-01-27T07:00:09;93909.00;;;1.13;100.00
23164;BME280;31429;42.674;23.350;2023-01-27T07:01:10;93859.97;;;0.85;100.00
23164;BME280;31429;42.674;23.350;2023-01-27T07:02:11;93859.22;;;0.78;100.00
23164;BME280;31429;42.674;23.350;2023-01-27T07:03:13;93885.97;;;0.84;100.00
23164;BME280;31429;42.674;23.350;2023-01-27T07:04:14;93887.47;;;0.94;100.00
23164;BME280;31429;42.674;23.350;2023-01-27T07:05:17;93865.88;;;0.82;100.00
23164;BME280;31429;42.674;23.350;2023-01-27T07:06:21;93879.91;;;0.95;100.00
23164;BME280;31429;42.674;23.350;2023-01-27T07:07:21;93915.50;;;1.26;100.00
23164;BME280;31429;42.674;23.350;2023-01-27T07:08:22;93901.44;;;1.13;100.00
23164;BME280;31429;42.674;23.350;2023-01-27T07:09:23;93884.75;;;1.07;100.00
23164;BME280;31429;42.674;23.350;2023-01-27T07:10:28;93894.09;;;1.01;100.00
23164;BME280;31429;42.674;23.350;2023-01-27T07:11:31;93889.97;;;0.95;100.00
23164;BME280;31429;42.674;23.350;2023-01-27T07:12:32;93896.56;;;1.02;100.00
23164;BME280;31429;42.674;23.350;2023-01-27T07:13:37;93919.81;;;1.16;100.00
23164;BME280;31429;42.674;23.350;2023-01-27T07:14:38;93883.28;;;0.94;100.00
23164;BME280;31429;42.674;23.350;2023-01-27T07:15:41;93880.88;;;0.87;100.00
23164;BME280;31429;42.674;23.350;2023-01-27T07:16:42;93910.66;;;1.14;100.00
23164;BME280;31429;42.674;23.350;2023-01-27T07:17:44;93891.44;;;1.08;100.00
23164;BME280;31429;42.674;23.350;2023-01-27T07:18:48;93887.25;;;1.09;100.00